createdAt,value
2023-04-18T00:00:29.076Z,15.57
2023-04-18T00:02:56.252Z,15.60
2023-04-18T00:05:23.456Z,16.02
2023-04-18T00:07:51.679Z,12.20
2023-04-18T00:10:18.820Z,14.02
2023-04-18T00:12:45.660Z,12.35
2023-04-18T00:15:12.941Z,13.07
2023-04-18T00:17:40.003Z,11.85
2023-04-18T00:20:10.724Z,12.30
2023-04-18T00:22:42.728Z,12.85
2023-04-18T00:25:10.715Z,13.60
2023-04-18T00:27:39.413Z,10.83
2023-04-18T00:30:07.357Z,9.45
2023-04-18T00:32:34.308Z,11.82
2023-04-18T00:35:01.235Z,12.43
2023-04-18T00:37:29.095Z,12.90
2023-04-18T00:39:56.194Z,9.00
2023-04-18T00:42:23.052Z,12.93
2023-04-18T00:44:49.906Z,10.95
2023-04-18T00:47:17.674Z,8.13
2023-04-18T00:49:45.440Z,9.45
2023-04-18T00:52:12.645Z,10.47
2023-04-18T00:54:40.905Z,10.32
2023-04-18T00:57:08.112Z,8.35
2023-04-18T00:59:35.834Z,9.20
2023-04-18T01:02:06.017Z,10.60
2023-04-18T01:04:36.078Z,10.10
2023-04-18T01:07:03.498Z,10.38
2023-04-18T01:09:30.848Z,8.82
2023-04-18T01:11:57.689Z,8.30
2023-04-18T01:14:24.396Z,10.77
2023-04-18T01:16:51.236Z,10.47
2023-04-18T01:19:18.442Z,7.93
2023-04-18T01:21:45.645Z,11.80
2023-04-18T01:24:15.207Z,10.75
2023-04-18T01:26:44.271Z,8.65
2023-04-18T01:29:11.839Z,10.50
2023-04-18T01:31:39.766Z,10.73
2023-04-18T01:34:07.507Z,8.55
2023-04-18T01:36:36.882Z,9.15
2023-04-18T01:39:03.961Z,10.68
2023-04-18T01:41:32.828Z,9.07
2023-04-18T01:44:00.313Z,9.27
2023-04-18T01:46:28.153Z,8.82
2023-04-18T01:48:55.763Z,9.80
2023-04-18T01:51:22.955Z,11.48
2023-04-18T01:53:50.115Z,7.70
2023-04-18T01:56:17.219Z,10.95
2023-04-18T01:58:44.144Z,9.02
2023-04-18T02:01:11.042Z,11.38
2023-04-18T02:03:38.057Z,10.88
2023-04-18T02:06:05.898Z,9.77
2023-04-18T02:08:35.853Z,8.43
2023-04-18T02:11:03.558Z,7.90
2023-04-18T02:13:30.506Z,10.25
2023-04-18T02:15:57.429Z,10.68
2023-04-18T02:18:25.643Z,10.43
2023-04-18T02:20:52.629Z,9.95
2023-04-18T02:23:19.577Z,10.20
2023-04-18T02:25:46.460Z,10.05
2023-04-18T02:28:13.457Z,10.27
2023-04-18T02:30:40.240Z,7.67
2023-04-18T02:33:07.053Z,8.35
2023-04-18T02:35:33.936Z,9.13
2023-04-18T02:38:00.802Z,9.65
2023-04-18T02:40:27.775Z,10.50
2023-04-18T02:42:54.555Z,7.17
2023-04-18T02:45:21.392Z,9.95
2023-04-18T02:47:55.538Z,8.60
2023-04-18T02:50:24.276Z,7.95
2023-04-18T02:52:51.137Z,6.68
2023-04-18T02:55:18.032Z,10.67
2023-04-18T02:57:44.778Z,9.75
2023-04-18T03:00:13.670Z,7.85
2023-04-18T03:02:40.653Z,9.50
2023-04-18T03:05:07.917Z,8.57
2023-04-18T03:07:34.749Z,8.23
2023-04-18T03:10:01.611Z,10.15
2023-04-18T03:12:28.505Z,7.45
2023-04-18T03:14:55.312Z,7.85
2023-04-18T03:17:22.266Z,9.45
2023-04-18T03:19:49.223Z,8.77
2023-04-18T03:22:16.375Z,9.20
2023-04-18T03:24:43.159Z,10.90
2023-04-18T03:27:09.983Z,9.25
2023-04-18T03:29:36.783Z,11.18
2023-04-18T03:32:03.647Z,8.87
2023-04-18T03:34:30.816Z,9.43
2023-04-18T03:36:57.622Z,9.38
2023-04-18T03:39:24.412Z,9.77
2023-04-18T03:41:52.352Z,9.82
2023-04-18T03:44:19.167Z,10.43
2023-04-18T03:46:46.112Z,9.73
2023-04-18T03:49:12.874Z,9.75
2023-04-18T03:51:44.537Z,12.20
2023-04-18T03:54:11.513Z,8.93
2023-04-18T03:56:38.600Z,10.80
2023-04-18T03:59:05.436Z,11.07
2023-04-18T04:01:32.274Z,12.45
2023-04-18T04:03:59.349Z,11.50
2023-04-18T04:06:26.408Z,10.52
2023-04-18T04:08:53.293Z,13.10
2023-04-18T04:11:20.150Z,13.95
2023-04-18T04:13:46.945Z,9.20
2023-04-18T04:16:13.834Z,10.45
2023-04-18T04:18:40.784Z,9.50
2023-04-18T04:21:07.584Z,11.40
2023-04-18T04:23:34.468Z,14.10
2023-04-18T04:26:04.681Z,10.35
2023-04-18T04:28:31.747Z,12.32
2023-04-18T04:30:58.528Z,16.23
2023-04-18T04:33:28.869Z,10.43
2023-04-18T04:35:56.642Z,11.57
2023-04-18T04:38:23.543Z,12.68
2023-04-18T04:40:51.074Z,10.98
2023-04-18T04:43:20.722Z,12.07
2023-04-18T04:45:54.369Z,10.90
2023-04-18T04:48:22.292Z,9.75
2023-04-18T04:50:56.976Z,10.98
2023-04-18T04:53:25.817Z,14.70
2023-04-18T04:55:52.752Z,11.68
2023-04-18T04:58:20.016Z,9.23
2023-04-18T05:00:47.260Z,11.13
2023-04-18T05:03:14.268Z,9.90
2023-04-18T05:05:41.610Z,12.80
2023-04-18T05:08:08.472Z,14.07
2023-04-18T05:10:37.305Z,11.57
2023-04-18T05:13:04.534Z,12.98
2023-04-18T05:15:31.833Z,12.85
2023-04-18T05:17:59.076Z,10.88
2023-04-18T05:20:25.930Z,10.82
2023-04-18T05:22:52.746Z,10.47
2023-04-18T05:25:20.141Z,8.90
2023-04-18T05:27:47.330Z,11.93
2023-04-18T05:30:14.664Z,11.50
2023-04-18T05:32:41.762Z,10.27
2023-04-18T05:35:09.586Z,9.27
2023-04-18T05:37:36.526Z,12.10
2023-04-18T05:40:05.216Z,11.93
2023-04-18T05:42:32.109Z,10.18
2023-04-18T05:44:58.998Z,9.70
2023-04-18T05:47:28.677Z,10.73
2023-04-18T05:49:56.094Z,13.30
2023-04-18T05:52:23.061Z,11.88
2023-04-18T05:54:49.980Z,10.80
2023-04-18T05:57:16.895Z,11.23
2023-04-18T05:59:43.778Z,11.63
2023-04-18T06:02:13.839Z,12.27
2023-04-18T06:04:42.152Z,13.25
2023-04-18T06:07:09.967Z,12.07
2023-04-18T06:09:37.108Z,15.38
2023-04-18T06:12:04.433Z,11.03
2023-04-18T06:14:31.415Z,11.35
2023-04-18T06:16:58.437Z,11.13
2023-04-18T06:19:25.451Z,11.40
2023-04-18T06:21:53.380Z,11.65
2023-04-18T06:24:20.215Z,11.03
2023-04-18T06:26:47.459Z,11.00
2023-04-18T06:29:14.439Z,12.45
2023-04-18T06:31:42.358Z,17.05
2023-04-18T06:34:09.608Z,10.32
2023-04-18T06:36:36.863Z,10.90
2023-04-18T06:39:04.058Z,10.07
2023-04-18T06:41:31.695Z,10.52
2023-04-18T06:46:28.377Z,11.98
2023-04-18T06:48:55.264Z,9.73
2023-04-18T06:51:22.293Z,11.73
2023-04-18T06:53:52.875Z,10.05
2023-04-18T06:56:22.907Z,10.77
2023-04-18T06:58:50.059Z,10.73
2023-04-18T07:01:17.003Z,11.40
2023-04-18T07:03:44.090Z,9.57
2023-04-18T07:06:11.235Z,8.63
2023-04-18T07:08:38.393Z,9.90
2023-04-18T07:11:06.806Z,9.70
2023-04-18T07:13:33.702Z,9.80
2023-04-18T07:16:01.709Z,10.10
2023-04-18T07:18:37.635Z,8.88
2023-04-18T07:21:08.946Z,9.93
2023-04-18T07:23:36.928Z,8.02
2023-04-18T07:26:05.858Z,8.80
2023-04-18T07:28:33.265Z,10.00
2023-04-18T07:31:01.404Z,9.90
2023-04-18T07:33:31.812Z,8.00
2023-04-18T07:35:58.797Z,8.98
2023-04-18T07:38:25.620Z,9.97
2023-04-18T07:40:59.499Z,11.93
2023-04-18T07:43:27.065Z,9.45
2023-04-18T07:45:54.540Z,8.07
2023-04-18T07:48:22.730Z,7.68
2023-04-18T07:50:49.850Z,7.10
2023-04-18T07:53:17.189Z,8.65
2023-04-18T07:55:44.091Z,8.65
2023-04-18T07:58:11.322Z,8.30
2023-04-18T08:00:42.744Z,8.85
2023-04-18T08:03:13.196Z,9.23
2023-04-18T08:05:42.350Z,7.53
2023-04-18T08:08:10.615Z,7.90
2023-04-18T08:10:37.563Z,9.90
2023-04-18T08:13:04.783Z,7.40
2023-04-18T08:15:33.096Z,12.03
2023-04-18T08:18:01.504Z,8.02
2023-04-18T08:20:28.630Z,8.55
2023-04-18T08:25:25.177Z,9.38
2023-04-18T08:27:52.030Z,6.50
2023-04-18T08:30:19.073Z,5.90
2023-04-18T08:32:46.163Z,6.38
2023-04-18T08:35:13.165Z,8.70
2023-04-18T08:37:40.022Z,6.07
2023-04-18T08:40:07.646Z,6.90
2023-04-18T08:42:35.783Z,7.57
2023-04-18T08:45:02.886Z,7.50
2023-04-18T08:47:30.231Z,6.78
2023-04-18T08:49:58.657Z,6.22
2023-04-18T08:52:27.323Z,7.53
2023-04-18T08:54:54.272Z,8.85
2023-04-18T08:57:27.297Z,8.10
2023-04-18T08:59:55.583Z,5.78
2023-04-18T09:02:35.288Z,6.25
2023-04-18T09:05:11.412Z,6.43
2023-04-18T09:07:38.300Z,6.53
2023-04-18T09:10:05.794Z,5.95
2023-04-18T09:12:32.740Z,5.93
2023-04-18T09:15:15.952Z,6.70
2023-04-18T09:17:54.203Z,6.07
2023-04-18T09:20:34.997Z,7.63
2023-04-18T09:23:11.212Z,8.02
2023-04-18T09:25:51.103Z,8.32
2023-04-18T09:28:27.208Z,10.27
2023-04-18T09:30:58.684Z,7.43
2023-04-18T09:33:32.744Z,8.23
2023-04-18T09:36:19.415Z,9.45
2023-04-18T09:38:52.522Z,12.43
2023-04-18T09:41:22.605Z,6.75
2023-04-18T09:43:49.716Z,7.77
2023-04-18T09:46:17.957Z,6.90
2023-04-18T09:48:45.041Z,6.55
2023-04-18T09:51:15.970Z,6.00
2023-04-18T09:53:44.881Z,5.38
2023-04-18T09:56:28.148Z,6.77
2023-04-18T09:59:09.374Z,6.95
2023-04-18T10:01:36.951Z,5.65
2023-04-18T10:04:06.940Z,5.47
2023-04-18T10:06:35.639Z,5.10
2023-04-18T10:09:06.585Z,5.60
2023-04-18T10:11:33.655Z,5.60
2023-04-18T10:14:08.557Z,3.97
2023-04-18T10:16:36.444Z,4.90
2023-04-18T10:19:29.704Z,5.10
2023-04-18T10:22:01.631Z,5.40
2023-04-18T10:24:57.133Z,5.63
2023-04-18T10:27:48.846Z,6.18
2023-04-18T10:30:17.020Z,5.50
2023-04-18T10:32:46.061Z,4.53
2023-04-18T10:35:13.056Z,4.77
2023-04-18T10:37:52.484Z,4.90
2023-04-18T10:40:34.430Z,5.28
2023-04-18T10:43:01.814Z,5.15
2023-04-18T10:45:31.416Z,4.63
2023-04-18T10:48:30.353Z,5.47
2023-04-18T10:51:18.864Z,5.10
2023-04-18T10:53:52.869Z,5.13
2023-04-18T10:56:20.125Z,5.53
2023-04-18T10:58:51.554Z,6.43
2023-04-18T11:01:31.782Z,5.13
2023-04-18T11:04:00.673Z,4.63
2023-04-18T11:06:28.055Z,4.75
2023-04-18T11:09:14.450Z,5.75
2023-04-18T11:11:42.570Z,5.22
2023-04-18T11:14:09.667Z,4.63
2023-04-18T11:16:36.882Z,5.97
2023-04-18T11:19:21.402Z,6.50
2023-04-18T11:21:48.411Z,6.22
2023-04-18T11:24:24.841Z,6.68
2023-04-18T11:26:56.177Z,5.47
2023-04-18T11:29:23.605Z,8.20
2023-04-18T11:31:56.805Z,7.95
2023-04-18T11:34:30.891Z,7.25
2023-04-18T11:36:58.244Z,7.95
2023-04-18T11:39:25.694Z,8.00
2023-04-18T11:41:52.879Z,6.75
2023-04-18T11:44:26.950Z,8.80
2023-04-18T11:46:54.206Z,7.68
2023-04-18T11:49:28.618Z,7.82
2023-04-18T11:51:56.317Z,8.03
2023-04-18T11:54:35.922Z,7.43
2023-04-18T11:57:03.677Z,8.02
2023-04-18T11:59:30.799Z,8.02
2023-04-18T12:02:14.778Z,9.80
2023-04-18T12:05:00.391Z,9.60
2023-04-18T12:07:40.042Z,11.00
2023-04-18T12:10:20.220Z,8.23
2023-04-18T12:12:54.814Z,8.27
2023-04-18T12:15:28.294Z,9.52
2023-04-18T12:18:00.744Z,10.20
2023-04-18T12:20:39.057Z,8.73
2023-04-18T12:23:06.889Z,10.32
2023-04-18T12:25:35.038Z,7.38
2023-04-18T12:28:15.896Z,11.07
2023-04-18T12:30:42.970Z,8.83
2023-04-18T12:33:09.945Z,8.88
2023-04-18T12:35:36.937Z,9.18
2023-04-18T12:38:05.248Z,8.82
2023-04-18T12:40:32.191Z,9.15
2023-04-18T12:43:00.517Z,11.10
2023-04-18T12:45:29.436Z,11.45
2023-04-18T12:47:56.308Z,9.60
2023-04-18T12:50:25.546Z,8.68
2023-04-18T12:52:54.060Z,9.27
2023-04-18T12:55:22.831Z,9.03
2023-04-18T12:57:51.992Z,9.10
2023-04-18T13:00:18.862Z,9.63
2023-04-18T13:02:46.213Z,9.40
2023-04-18T13:05:14.750Z,13.07
2023-04-18T13:07:42.819Z,10.43
2023-04-18T13:10:11.196Z,11.55
2023-04-18T13:12:41.656Z,13.13
2023-04-18T13:15:09.900Z,10.23
2023-04-18T13:17:38.167Z,12.10
2023-04-18T13:20:13.124Z,13.43
2023-04-18T13:22:41.145Z,11.98
2023-04-18T13:25:10.883Z,12.00
2023-04-18T13:27:41.379Z,13.45
2023-04-18T13:30:12.147Z,10.95
2023-04-18T13:32:40.962Z,11.87
2023-04-18T13:35:11.254Z,11.40
2023-04-18T13:37:39.177Z,10.82
2023-04-18T13:40:07.147Z,10.48
2023-04-18T13:42:35.914Z,12.73
2023-04-18T13:45:03.452Z,11.73
2023-04-18T13:47:30.542Z,12.63
2023-04-18T13:49:58.072Z,10.80
2023-04-18T13:52:25.264Z,12.02
2023-04-18T13:54:52.153Z,11.27
2023-04-18T13:57:19.071Z,10.30
2023-04-18T13:59:45.901Z,11.18
2023-04-18T14:02:12.895Z,12.68
2023-04-18T14:04:39.984Z,12.07
2023-04-18T14:07:08.214Z,10.60
2023-04-18T14:09:35.263Z,11.77
2023-04-18T14:12:02.299Z,10.70
2023-04-18T14:14:29.706Z,10.95
2023-04-18T14:16:56.718Z,9.95
2023-04-18T14:19:24.081Z,11.13
2023-04-18T14:21:51.060Z,10.60
2023-04-18T14:24:18.132Z,15.57
2023-04-18T14:26:45.115Z,11.18
2023-04-18T14:29:12.295Z,12.32
2023-04-18T14:31:39.440Z,10.45
2023-04-18T14:34:08.408Z,12.23
2023-04-18T14:36:36.056Z,12.23
2023-04-18T14:39:03.659Z,10.80
2023-04-18T14:41:30.724Z,11.60
2023-04-18T14:43:57.732Z,11.20
2023-04-18T14:46:25.458Z,9.67
2023-04-18T14:48:52.265Z,10.23
2023-04-18T14:51:19.254Z,10.43
2023-04-18T14:53:46.382Z,11.75
2023-04-18T14:56:13.773Z,10.95
2023-04-18T14:58:40.625Z,10.23
2023-04-18T15:01:07.472Z,11.05
2023-04-18T15:03:34.743Z,10.63
2023-04-18T15:06:01.834Z,9.18
2023-04-18T15:08:31.339Z,10.52
2023-04-18T15:10:59.548Z,9.57
2023-04-18T15:13:26.548Z,10.48
2023-04-18T15:15:54.259Z,9.02
2023-04-18T15:18:21.504Z,11.85
2023-04-18T15:20:48.650Z,11.63
2023-04-18T15:23:16.098Z,10.83
2023-04-18T15:25:44.714Z,8.63
2023-04-18T15:28:13.593Z,11.68
2023-04-18T15:30:40.885Z,9.63
2023-04-18T15:33:08.617Z,9.00
2023-04-18T15:35:36.144Z,10.83
2023-04-18T15:38:03.041Z,11.45
2023-04-18T15:40:30.485Z,10.95
2023-04-18T15:42:59.691Z,11.13
2023-04-18T15:45:26.675Z,9.15
2023-04-18T15:47:53.600Z,10.23
2023-04-18T15:50:20.735Z,7.75
2023-04-18T15:52:47.710Z,10.88
2023-04-18T15:55:14.864Z,10.68
2023-04-18T15:57:42.175Z,9.75
2023-04-18T16:00:16.010Z,10.47
2023-04-18T16:02:46.719Z,15.80
2023-04-18T16:05:14.370Z,9.88
2023-04-18T16:07:42.442Z,10.77
2023-04-18T16:10:11.257Z,9.52
2023-04-18T16:12:39.660Z,12.50
2023-04-18T16:15:08.695Z,11.05
2023-04-18T16:17:39.018Z,9.68
2023-04-18T16:20:08.435Z,8.90
2023-04-18T16:22:35.412Z,10.00
2023-04-18T16:25:02.420Z,11.23
2023-04-18T16:27:29.320Z,8.85
2023-04-18T16:29:56.121Z,9.73
2023-04-18T16:32:23.176Z,9.57
2023-04-18T16:34:49.997Z,7.45
2023-04-18T16:37:16.812Z,9.03
2023-04-18T16:39:43.661Z,9.00
2023-04-18T16:42:10.467Z,10.13
2023-04-18T16:44:37.440Z,8.40
2023-04-18T16:47:05.248Z,8.65
2023-04-18T16:49:32.176Z,8.67
2023-04-18T16:51:59.163Z,8.55
2023-04-18T16:54:26.179Z,9.07
2023-04-18T16:56:53.265Z,8.77
2023-04-18T16:59:20.140Z,11.10
2023-04-18T17:01:47.108Z,8.17
2023-04-18T17:04:15.522Z,8.60
2023-04-18T17:06:43.897Z,8.60
2023-04-18T17:09:13.664Z,9.95
2023-04-18T17:11:41.482Z,6.68
2023-04-18T17:14:08.857Z,8.70
2023-04-18T17:16:39.794Z,7.68
2023-04-18T17:19:07.262Z,7.53
2023-04-18T17:21:35.236Z,7.38
2023-04-18T17:24:04.191Z,9.30
2023-04-18T17:26:31.483Z,10.03
2023-04-18T17:28:58.479Z,7.90
2023-04-18T17:31:25.499Z,8.95
2023-04-18T17:33:53.070Z,9.40
2023-04-18T17:36:20.067Z,7.38
2023-04-18T17:38:50.127Z,10.53
2023-04-18T17:41:18.505Z,10.48
2023-04-18T17:43:46.424Z,10.45
2023-04-18T17:46:14.286Z,9.95
2023-04-18T17:48:41.615Z,11.23
2023-04-18T17:51:08.511Z,7.53
2023-04-18T17:53:35.490Z,9.93
2023-04-18T17:56:03.750Z,8.82
2023-04-18T17:58:30.717Z,13.27
2023-04-18T18:00:57.778Z,7.00
2023-04-18T18:03:24.851Z,8.17
2023-04-18T18:05:52.010Z,10.35
2023-04-18T18:08:18.902Z,7.40
2023-04-18T18:10:47.153Z,8.70
2023-04-18T18:13:14.128Z,8.30
2023-04-18T18:15:41.091Z,8.57
2023-04-18T18:18:08.112Z,8.02
2023-04-18T18:20:35.121Z,8.68
2023-04-18T18:23:02.978Z,10.75
2023-04-18T18:25:30.517Z,8.77
2023-04-18T18:27:57.427Z,9.40
2023-04-18T18:30:24.279Z,6.88
2023-04-18T18:32:51.477Z,9.57
2023-04-18T18:35:18.383Z,10.43
2023-04-18T18:37:45.301Z,7.50
2023-04-18T18:40:13.210Z,8.87
2023-04-18T18:42:40.252Z,9.40
2023-04-18T18:45:07.924Z,8.88
2023-04-18T18:47:35.822Z,9.30
2023-04-18T18:50:04.759Z,8.52
2023-04-18T18:52:32.777Z,13.37
2023-04-18T18:55:01.411Z,9.50
2023-04-18T18:57:28.426Z,7.68
2023-04-18T18:59:55.934Z,9.05
2023-04-18T19:02:23.469Z,11.65
2023-04-18T19:04:50.511Z,8.37
2023-04-18T19:07:17.440Z,8.25
2023-04-18T19:09:45.869Z,9.38
2023-04-18T19:12:12.811Z,8.30
2023-04-18T19:14:40.693Z,10.43
2023-04-18T19:17:09.240Z,8.80
2023-04-18T19:19:36.403Z,9.60
2023-04-18T19:22:03.290Z,9.02
2023-04-18T19:24:32.099Z,7.57
2023-04-18T19:26:59.821Z,8.85
2023-04-18T19:29:26.955Z,6.30
2023-04-18T19:31:54.027Z,7.55
2023-04-18T19:34:22.311Z,7.93
2023-04-18T19:36:49.322Z,7.57
2023-04-18T19:39:16.578Z,7.80
2023-04-18T19:41:43.729Z,8.33
2023-04-18T19:44:10.635Z,5.93
2023-04-18T19:46:37.736Z,6.03
2023-04-18T19:49:04.599Z,6.93
2023-04-18T19:51:31.519Z,6.80
2023-04-18T19:53:58.375Z,7.50
2023-04-18T19:56:25.371Z,6.65
2023-04-18T19:58:52.365Z,8.75
2023-04-18T20:01:20.419Z,7.20
2023-04-18T20:03:48.351Z,8.32
2023-04-18T20:06:17.206Z,8.30
2023-04-18T20:08:46.005Z,6.65
2023-04-18T20:11:16.498Z,7.72
2023-04-18T20:13:43.444Z,7.63
2023-04-18T20:16:11.194Z,6.28
2023-04-18T20:18:39.594Z,8.53
2023-04-18T20:21:07.816Z,7.00
2023-04-18T20:23:38.322Z,10.38
2023-04-18T20:26:05.263Z,7.40
2023-04-18T20:28:32.463Z,7.75
2023-04-18T20:30:59.515Z,12.37
2023-04-18T20:33:26.470Z,9.95
2023-04-18T20:35:54.810Z,8.30
2023-04-18T20:38:25.863Z,8.10
2023-04-18T20:40:54.295Z,8.00
2023-04-18T20:43:21.841Z,10.20
2023-04-18T20:45:51.658Z,7.68
2023-04-18T20:48:18.772Z,8.85
2023-04-18T20:50:51.322Z,8.13
2023-04-18T20:53:22.570Z,6.55
2023-04-18T20:55:49.433Z,7.03
2023-04-18T20:58:16.913Z,8.57
2023-04-18T21:00:46.825Z,8.60
2023-04-18T21:03:14.240Z,8.93
2023-04-18T21:05:41.489Z,5.88
2023-04-18T21:08:08.322Z,7.43
2023-04-18T21:10:35.102Z,8.73
2023-04-18T21:13:01.974Z,6.68
2023-04-18T21:15:28.845Z,11.32
2023-04-18T21:17:56.088Z,8.93
2023-04-18T21:20:23.042Z,8.47
2023-04-18T21:22:49.871Z,7.65
2023-04-18T21:25:17.048Z,6.03
2023-04-18T21:27:43.865Z,6.40
2023-04-18T21:30:11.035Z,8.50
2023-04-18T21:32:37.951Z,8.50
2023-04-18T21:35:05.114Z,6.07
2023-04-18T21:37:32.364Z,7.72
2023-04-18T21:39:59.169Z,6.32
2023-04-18T21:42:27.022Z,7.72
2023-04-18T21:44:54.979Z,8.30
2023-04-18T21:47:22.246Z,7.10
2023-04-18T21:49:49.453Z,7.55
2023-04-18T21:52:16.497Z,7.45
2023-04-18T21:54:43.308Z,9.93
2023-04-18T21:57:10.110Z,6.80
2023-04-18T21:59:39.635Z,7.30
2023-04-18T22:02:06.881Z,6.65
2023-04-18T22:04:35.052Z,7.47
2023-04-18T22:07:02.533Z,6.53
2023-04-18T22:09:29.844Z,7.70
2023-04-18T22:11:57.080Z,9.98
2023-04-18T22:14:24.935Z,5.80
2023-04-18T22:16:51.940Z,7.07
2023-04-18T22:19:19.298Z,5.57
2023-04-18T22:21:46.632Z,7.43
2023-04-18T22:24:13.576Z,7.00
2023-04-18T22:26:41.038Z,6.50
2023-04-18T22:29:07.882Z,7.28
2023-04-18T22:31:34.668Z,6.82
2023-04-18T22:34:01.530Z,9.13
2023-04-18T22:36:28.511Z,9.00
2023-04-18T22:38:55.443Z,6.20
2023-04-18T22:41:22.231Z,7.10
2023-04-18T22:43:49.119Z,7.70
2023-04-18T22:46:16.024Z,8.67
2023-04-18T22:48:44.943Z,6.88
2023-04-18T22:51:11.892Z,8.45
2023-04-18T22:53:38.698Z,8.23
2023-04-18T22:56:05.774Z,6.68
2023-04-18T22:58:32.741Z,6.47
2023-04-18T23:00:59.806Z,6.97
2023-04-18T23:03:26.743Z,8.20
2023-04-18T23:05:53.789Z,6.53
2023-04-18T23:08:22.713Z,10.57
2023-04-18T23:10:49.608Z,7.53
2023-04-18T23:13:16.389Z,7.57
2023-04-18T23:15:43.305Z,7.38
2023-04-18T23:18:10.272Z,5.90
2023-04-18T23:20:37.943Z,7.72
2023-04-18T23:23:04.812Z,6.30
2023-04-18T23:25:34.394Z,6.55
2023-04-18T23:28:01.297Z,6.57
2023-04-18T23:30:28.028Z,7.57
2023-04-18T23:32:54.836Z,7.50
2023-04-18T23:35:21.849Z,8.13
2023-04-18T23:37:48.783Z,7.80
2023-04-18T23:40:15.565Z,8.57
2023-04-18T23:42:42.360Z,8.82
2023-04-18T23:45:09.317Z,7.28
2023-04-18T23:47:36.673Z,7.73
2023-04-18T23:50:03.697Z,12.85
2023-04-18T23:52:30.639Z,7.22
2023-04-18T23:55:01.004Z,10.70
2023-04-18T23:57:28.081Z,8.18
2023-04-18T23:59:54.852Z,7.70
